createdAt,value
2019-05-21T00:02:11.992Z,39.80
2019-05-21T00:04:46.398Z,39.60
2019-05-21T00:07:21.328Z,39.70
2019-05-21T00:10:00.119Z,39.50
2019-05-21T00:12:38.263Z,39.50
2019-05-21T00:15:14.178Z,40.00
2019-05-21T00:17:48.751Z,40.30
2019-05-21T00:20:24.430Z,40.20
2019-05-21T00:22:58.698Z,40.20
2019-05-21T00:25:33.285Z,40.40
2019-05-21T00:28:33.736Z,40.30
2019-05-21T00:31:43.047Z,40.00
2019-05-21T00:34:52.297Z,39.70
2019-05-21T00:38:01.664Z,39.70
2019-05-21T00:41:11.372Z,39.50
2019-05-21T00:43:50.301Z,39.30
2019-05-21T00:46:24.668Z,39.10
2019-05-21T00:48:59.066Z,38.80
2019-05-21T00:51:33.658Z,38.80
2019-05-21T00:54:08.201Z,38.80
2019-05-21T00:56:43.754Z,38.70
2019-05-21T00:59:18.196Z,38.60
2019-05-21T01:01:52.597Z,38.40
2019-05-21T01:04:27.190Z,38.20
2019-05-21T01:07:01.606Z,38.10
2019-05-21T01:09:36.034Z,38.10
2019-05-21T01:12:10.280Z,37.90
2019-05-21T01:14:44.572Z,37.90
2019-05-21T01:17:18.979Z,37.50
2019-05-21T01:19:53.362Z,37.60
2019-05-21T01:22:27.819Z,37.50
2019-05-21T01:25:02.560Z,37.30
2019-05-21T01:27:38.117Z,37.30
2019-05-21T01:30:12.837Z,37.20
2019-05-21T01:32:47.295Z,36.90
2019-05-21T01:35:21.883Z,36.90
2019-05-21T01:37:57.737Z,37.10
2019-05-21T01:40:32.068Z,37.10
2019-05-21T01:43:06.522Z,37.00
2019-05-21T01:45:41.285Z,36.90
2019-05-21T01:48:15.697Z,36.80
2019-05-21T01:50:50.023Z,36.80
2019-05-21T01:53:24.319Z,36.80
2019-05-21T01:55:58.676Z,37.20
2019-05-21T01:58:33.000Z,36.80
2019-05-21T02:01:07.340Z,36.70
2019-05-21T02:03:41.802Z,36.60
2019-05-21T02:06:16.239Z,36.60
2019-05-21T02:08:50.585Z,36.70
2019-05-21T02:11:25.375Z,36.50
2019-05-21T02:13:59.825Z,36.70
2019-05-21T02:16:35.434Z,36.70
2019-05-21T02:19:09.909Z,36.80
2019-05-21T02:21:44.824Z,36.70
2019-05-21T02:24:19.300Z,36.60
2019-05-21T02:26:53.836Z,36.60
2019-05-21T02:29:28.920Z,36.60
2019-05-21T02:32:03.428Z,36.60
2019-05-21T02:34:37.831Z,36.60
2019-05-21T02:37:12.298Z,36.50
2019-05-21T02:39:47.716Z,36.30
2019-05-21T02:42:22.330Z,36.10
2019-05-21T02:44:56.951Z,35.60
2019-05-21T02:47:31.686Z,35.30
2019-05-21T02:50:07.025Z,35.30
2019-05-21T02:52:41.366Z,35.20
2019-05-21T02:55:16.996Z,34.70
2019-05-21T02:57:51.320Z,35.40
2019-05-21T03:00:32.947Z,35.00
2019-05-21T03:03:08.557Z,35.50
2019-05-21T03:05:43.031Z,35.00
2019-05-21T03:08:17.903Z,35.20
2019-05-21T03:10:52.817Z,35.20
2019-05-21T03:13:27.963Z,34.90
2019-05-21T03:16:06.791Z,34.60
2019-05-21T03:18:42.381Z,34.60
2019-05-21T03:21:19.429Z,34.30
2019-05-21T03:23:59.516Z,34.30
2019-05-21T03:26:46.358Z,34.20
2019-05-21T03:29:20.771Z,34.10
2019-05-21T03:31:55.219Z,33.60
2019-05-21T03:34:30.659Z,34.20
2019-05-21T03:37:05.168Z,34.30
2019-05-21T03:39:39.681Z,34.40
2019-05-21T03:42:14.137Z,34.30
2019-05-21T03:44:59.920Z,33.80
2019-05-21T03:47:25.741Z,33.60
2019-05-21T03:50:00.090Z,34.20
2019-05-21T03:52:34.473Z,33.10
2019-05-21T03:55:08.929Z,33.10
2019-05-21T03:57:43.256Z,33.20
2019-05-21T04:00:18.120Z,33.60
2019-05-21T04:02:52.500Z,33.70
2019-05-21T04:05:27.845Z,33.70
2019-05-21T04:08:02.293Z,33.40
2019-05-21T04:10:37.264Z,33.30
2019-05-21T04:13:12.820Z,32.90
2019-05-21T04:15:48.892Z,32.40
2019-05-21T04:18:24.917Z,33.00
2019-05-21T04:20:59.629Z,33.20
2019-05-21T04:23:34.105Z,32.20
2019-05-21T04:26:08.894Z,32.40
2019-05-21T04:28:45.459Z,32.80
2019-05-21T04:31:19.898Z,32.50
2019-05-21T04:33:54.701Z,33.10
2019-05-21T04:36:29.705Z,33.40
2019-05-21T04:39:04.679Z,33.10
2019-05-21T04:41:39.632Z,32.90
2019-05-21T04:44:14.790Z,32.40
2019-05-21T04:46:49.822Z,31.00
2019-05-21T04:49:25.328Z,30.80
2019-05-21T04:52:00.059Z,31.00
2019-05-21T04:54:36.228Z,32.00
2019-05-21T04:57:10.812Z,31.60
2019-05-21T04:59:45.449Z,31.50
2019-05-21T05:02:23.800Z,32.10
2019-05-21T05:04:58.706Z,32.70
2019-05-21T05:07:34.496Z,32.20
2019-05-21T05:10:14.316Z,32.80
2019-05-21T05:12:49.560Z,32.30
2019-05-21T05:15:24.469Z,31.00
2019-05-21T05:17:59.692Z,30.90
2019-05-21T05:20:34.470Z,31.60
2019-05-21T05:23:09.293Z,31.50
2019-05-21T05:25:45.380Z,32.00
2019-05-21T05:28:20.107Z,31.80
2019-05-21T05:30:54.693Z,31.50
2019-05-21T05:33:31.004Z,31.40
2019-05-21T05:36:06.344Z,30.90
2019-05-21T05:38:52.559Z,31.10
2019-05-21T05:41:29.747Z,30.90
2019-05-21T05:44:04.626Z,31.50
2019-05-21T05:46:44.074Z,31.40
2019-05-21T05:49:35.902Z,30.50
2019-05-21T05:52:10.645Z,29.40
2019-05-21T05:54:45.455Z,29.60
2019-05-21T05:57:20.259Z,30.00
2019-05-21T05:59:55.103Z,29.80
2019-05-21T06:02:31.739Z,30.00
2019-05-21T06:05:08.640Z,29.50
2019-05-21T06:07:57.297Z,30.40
2019-05-21T06:10:19.684Z,30.00
2019-05-21T06:12:54.403Z,30.60
2019-05-21T06:15:29.512Z,29.80
2019-05-21T06:18:14.886Z,30.00
2019-05-21T06:20:51.833Z,30.20
2019-05-21T06:23:26.817Z,29.90
2019-05-21T06:26:02.401Z,30.20
2019-05-21T06:28:37.305Z,29.90
2019-05-21T06:31:12.086Z,30.30
2019-05-21T06:33:47.998Z,29.90
2019-05-21T06:36:22.468Z,30.00
2019-05-21T06:38:57.183Z,28.90
2019-05-21T06:41:36.314Z,29.00
2019-05-21T06:44:12.466Z,29.30
2019-05-21T06:46:48.479Z,29.50
2019-05-21T06:49:24.578Z,29.80
2019-05-21T06:51:59.069Z,29.50
2019-05-21T06:54:41.016Z,30.60
2019-05-21T06:57:19.615Z,29.90
2019-05-21T06:59:55.168Z,29.70
2019-05-21T07:02:31.057Z,29.30
2019-05-21T07:05:06.077Z,29.50
2019-05-21T07:07:43.547Z,29.60
2019-05-21T07:10:19.600Z,29.10
2019-05-21T07:13:07.266Z,29.50
2019-05-21T07:15:43.621Z,29.10
2019-05-21T07:18:18.442Z,28.70
2019-05-21T07:20:54.515Z,28.70
2019-05-21T07:23:29.244Z,29.10
2019-05-21T07:26:05.776Z,28.50
2019-05-21T07:28:41.812Z,28.70
2019-05-21T07:31:18.027Z,28.50
2019-05-21T07:33:53.693Z,28.90
2019-05-21T07:36:38.723Z,28.80
2019-05-21T07:39:13.544Z,28.70
2019-05-21T07:41:48.323Z,28.50
2019-05-21T07:44:24.184Z,28.60
2019-05-21T07:47:00.023Z,28.70
2019-05-21T07:49:34.776Z,28.90
2019-05-21T07:52:10.963Z,28.00
2019-05-21T07:54:46.005Z,28.50
2019-05-21T07:57:20.630Z,28.50
2019-05-21T07:59:58.322Z,29.40
2019-05-21T08:02:37.976Z,28.60
2019-05-21T08:05:15.090Z,28.60
2019-05-21T08:07:50.122Z,28.80
2019-05-21T08:10:26.540Z,28.70
2019-05-21T08:13:03.160Z,29.10
2019-05-21T08:15:41.533Z,28.90
2019-05-21T08:18:16.568Z,28.90
2019-05-21T08:20:52.411Z,29.40
2019-05-21T08:23:27.262Z,29.10
2019-05-21T08:26:03.770Z,29.60
2019-05-21T08:28:39.389Z,29.20
2019-05-21T08:31:15.337Z,29.60
2019-05-21T08:33:51.626Z,29.70
2019-05-21T08:36:48.417Z,29.40
2019-05-21T08:39:28.753Z,29.20
2019-05-21T08:41:59.338Z,29.30
2019-05-21T08:44:34.479Z,28.60
2019-05-21T08:47:09.403Z,28.30
2019-05-21T08:49:45.016Z,27.80
2019-05-21T08:52:20.573Z,28.50
2019-05-21T08:54:56.716Z,28.40
2019-05-21T08:57:33.745Z,28.30
2019-05-21T09:00:13.453Z,28.50
2019-05-21T09:02:49.146Z,28.40
2019-05-21T09:05:26.858Z,28.20
2019-05-21T09:08:13.161Z,28.30
2019-05-21T09:10:53.438Z,27.90
2019-05-21T09:13:31.832Z,28.80
2019-05-21T09:16:08.113Z,28.50
2019-05-21T09:18:45.351Z,28.00
2019-05-21T09:21:20.855Z,27.80
2019-05-21T09:23:55.917Z,27.80
2019-05-21T09:26:33.014Z,27.80
2019-05-21T09:29:07.578Z,27.70
2019-05-21T09:31:42.432Z,27.40
2019-05-21T09:34:18.579Z,26.80
2019-05-21T09:36:54.212Z,27.60
2019-05-21T09:39:28.862Z,27.10
2019-05-21T09:42:03.631Z,27.50
2019-05-21T09:44:38.241Z,27.30
2019-05-21T09:47:14.140Z,27.20
2019-05-21T09:49:48.938Z,27.80
2019-05-21T09:52:24.471Z,27.80
2019-05-21T09:54:58.777Z,27.50
2019-05-21T09:57:34.604Z,27.40
2019-05-21T10:00:19.038Z,28.10
2019-05-21T10:02:53.810Z,27.90
2019-05-21T10:05:30.506Z,27.80
2019-05-21T10:08:29.063Z,27.10
2019-05-21T10:11:03.478Z,26.60
2019-05-21T10:13:42.225Z,27.10
2019-05-21T10:16:16.641Z,27.90
2019-05-21T10:18:51.184Z,26.50
2019-05-21T10:21:25.780Z,26.80
2019-05-21T10:24:00.496Z,27.10
2019-05-21T10:26:34.947Z,26.20
2019-05-21T10:29:09.513Z,26.90
2019-05-21T10:31:45.552Z,27.10
2019-05-21T10:34:21.500Z,27.00
2019-05-21T10:36:56.477Z,27.40
2019-05-21T10:39:32.410Z,27.60
2019-05-21T10:42:17.258Z,27.60
2019-05-21T10:44:53.545Z,27.50
2019-05-21T10:47:29.540Z,27.10
2019-05-21T10:50:06.732Z,27.70
2019-05-21T10:52:42.528Z,27.70
2019-05-21T10:55:17.762Z,27.30
2019-05-21T10:57:53.716Z,27.70
2019-05-21T11:00:30.295Z,27.80
2019-05-21T11:03:15.121Z,27.80
2019-05-21T11:06:09.149Z,28.00
2019-05-21T11:08:31.053Z,27.80
2019-05-21T11:11:06.916Z,28.30
2019-05-21T11:13:41.488Z,28.40
2019-05-21T11:16:17.298Z,28.00
2019-05-21T11:18:53.172Z,28.30
2019-05-21T11:21:27.862Z,27.90
2019-05-21T11:24:02.576Z,28.30
2019-05-21T11:26:38.144Z,28.00
2019-05-21T11:29:14.542Z,28.20
2019-05-21T11:31:57.092Z,28.00
2019-05-21T11:34:26.265Z,28.00
2019-05-21T11:37:02.676Z,28.30
2019-05-21T11:39:37.660Z,27.90
2019-05-21T11:42:13.235Z,28.10
2019-05-21T11:44:47.968Z,28.30
2019-05-21T11:47:25.660Z,28.70
2019-05-21T11:50:02.559Z,28.50
2019-05-21T11:52:37.856Z,28.40
2019-05-21T11:55:13.110Z,28.70
2019-05-21T11:57:47.607Z,29.00
2019-05-21T12:00:23.689Z,28.90
2019-05-21T12:02:58.731Z,28.90
2019-05-21T12:05:33.788Z,28.80
2019-05-21T12:08:09.221Z,29.00
2019-05-21T12:10:48.156Z,29.20
2019-05-21T12:13:24.312Z,29.30
2019-05-21T12:16:00.997Z,29.10
2019-05-21T12:18:38.309Z,29.10
2019-05-21T12:21:14.006Z,29.30
2019-05-21T12:23:49.158Z,29.40
2019-05-21T12:26:24.004Z,29.30
2019-05-21T12:28:58.714Z,29.00
2019-05-21T12:31:36.107Z,28.90
2019-05-21T12:34:11.214Z,29.00
2019-05-21T12:36:46.219Z,29.00
2019-05-21T12:39:22.120Z,29.00
2019-05-21T12:41:57.398Z,29.30
2019-05-21T12:44:32.034Z,29.00
2019-05-21T12:47:10.796Z,29.20
2019-05-21T12:49:46.528Z,28.70
2019-05-21T12:52:22.963Z,29.10
2019-05-21T12:54:57.523Z,29.00
2019-05-21T12:57:32.204Z,29.20
2019-05-21T13:00:09.110Z,29.10
2019-05-21T13:02:43.733Z,29.20
2019-05-21T13:05:21.416Z,29.20
2019-05-21T13:07:55.966Z,29.20
2019-05-21T13:10:30.414Z,29.20
2019-05-21T13:13:05.329Z,29.30
2019-05-21T13:15:40.440Z,29.60
2019-05-21T13:18:16.005Z,29.00
2019-05-21T13:21:00.241Z,29.40
2019-05-21T13:23:39.271Z,29.30
2019-05-21T13:26:15.991Z,29.10
2019-05-21T13:28:53.210Z,29.30
2019-05-21T13:31:28.389Z,29.60
2019-05-21T13:34:06.877Z,29.40
2019-05-21T13:36:41.953Z,29.40
2019-05-21T13:39:19.859Z,29.60
2019-05-21T13:44:52.229Z,29.60
2019-05-21T13:47:32.481Z,29.60
2019-05-21T13:50:12.084Z,29.60
2019-05-21T13:52:47.636Z,29.80
2019-05-21T13:55:24.191Z,29.80
2019-05-21T13:57:58.882Z,29.90
2019-05-21T14:01:00.266Z,29.90
2019-05-21T14:03:36.157Z,29.90
2019-05-21T14:06:12.283Z,30.00
2019-05-21T14:08:47.238Z,29.60
2019-05-21T14:11:29.226Z,29.90
2019-05-21T14:14:06.348Z,29.90
2019-05-21T14:16:43.789Z,30.20
2019-05-21T14:19:19.901Z,29.70
2019-05-21T14:21:58.379Z,30.40
2019-05-21T14:24:33.186Z,30.00
2019-05-21T14:27:07.836Z,30.00
2019-05-21T14:29:46.868Z,30.10
2019-05-21T14:32:26.014Z,30.10
2019-05-21T14:35:02.467Z,30.30
2019-05-21T14:37:58.768Z,30.30
2019-05-21T14:40:33.806Z,30.00
2019-05-21T14:43:10.181Z,30.10
2019-05-21T14:45:46.858Z,30.20
2019-05-21T14:48:22.604Z,30.70
2019-05-21T14:51:05.964Z,30.40
2019-05-21T14:53:43.547Z,30.80
2019-05-21T14:56:18.502Z,30.20
2019-05-21T14:58:59.272Z,30.20
2019-05-21T15:01:46.021Z,30.50
2019-05-21T15:04:23.979Z,30.20
2019-05-21T15:07:00.494Z,30.00
2019-05-21T15:09:36.190Z,30.10
2019-05-21T15:12:12.950Z,30.20
2019-05-21T15:15:07.186Z,30.30
2019-05-21T15:17:44.712Z,30.20
2019-05-21T15:20:23.259Z,30.10
2019-05-21T15:22:58.839Z,30.00
2019-05-21T15:25:35.275Z,30.50
2019-05-21T15:28:20.121Z,30.20
2019-05-21T15:30:58.072Z,30.30
2019-05-21T15:33:34.230Z,30.40
2019-05-21T15:36:09.567Z,30.30
2019-05-21T15:38:50.829Z,30.50
2019-05-21T15:41:25.696Z,30.70
2019-05-21T15:44:01.363Z,30.70
2019-05-21T15:46:49.480Z,30.90
2019-05-21T15:49:35.077Z,31.10
2019-05-21T15:52:05.457Z,31.20
2019-05-21T15:54:42.716Z,31.10
2019-05-21T15:57:18.637Z,30.90
2019-05-21T15:59:55.953Z,31.10
2019-05-21T16:02:35.529Z,31.20
2019-05-21T16:05:11.211Z,31.30
2019-05-21T16:07:47.449Z,31.00
2019-05-21T16:10:23.215Z,31.40
2019-05-21T16:13:01.322Z,31.30
2019-05-21T16:15:38.878Z,31.30
2019-05-21T16:18:16.857Z,31.10
2019-05-21T16:20:54.219Z,31.10
2019-05-21T16:23:30.121Z,30.90
2019-05-21T16:26:05.955Z,31.10
2019-05-21T16:28:41.987Z,31.20
2019-05-21T16:31:17.169Z,31.40
2019-05-21T16:33:51.999Z,31.30
2019-05-21T16:36:26.589Z,31.30
2019-05-21T16:39:03.546Z,31.40
2019-05-21T16:41:44.911Z,31.30
2019-05-21T16:44:18.875Z,31.30
2019-05-21T16:46:55.124Z,31.40
2019-05-21T16:49:31.257Z,32.00
2019-05-21T16:52:06.247Z,31.40
2019-05-21T16:54:42.945Z,31.40
2019-05-21T16:57:18.772Z,31.40
2019-05-21T16:59:54.932Z,31.50
2019-05-21T17:02:30.308Z,31.70
2019-05-21T17:05:05.566Z,32.00
2019-05-21T17:07:42.667Z,32.00
2019-05-21T17:10:19.375Z,32.00
2019-05-21T17:12:56.025Z,32.20
2019-05-21T17:15:30.691Z,32.10
2019-05-21T17:18:05.400Z,32.20
2019-05-21T17:20:40.232Z,32.40
2019-05-21T17:23:16.692Z,32.40
2019-05-21T17:25:50.600Z,32.40
2019-05-21T17:28:27.113Z,32.50
2019-05-21T17:31:01.062Z,32.50
2019-05-21T17:33:36.596Z,32.60
2019-05-21T17:36:12.172Z,32.70
2019-05-21T17:38:46.935Z,32.60
2019-05-21T17:41:22.960Z,32.90
2019-05-21T17:43:57.541Z,32.90
2019-05-21T17:46:32.191Z,32.90
2019-05-21T17:49:06.754Z,32.80
2019-05-21T17:51:42.824Z,32.90
2019-05-21T17:54:17.311Z,32.90
2019-05-21T17:56:52.980Z,33.00
2019-05-21T17:59:28.774Z,33.00
2019-05-21T18:02:07.548Z,33.00
2019-05-21T18:04:43.285Z,33.00
2019-05-21T18:07:18.216Z,33.20
2019-05-21T18:09:53.558Z,33.30
2019-05-21T18:12:32.127Z,33.30
2019-05-21T18:15:04.455Z,33.30
2019-05-21T18:17:40.394Z,33.50
2019-05-21T18:20:16.861Z,33.50
2019-05-21T18:22:53.887Z,33.50
2019-05-21T18:25:30.007Z,33.40
2019-05-21T18:28:05.567Z,33.50
2019-05-21T18:30:40.883Z,33.60
2019-05-21T18:33:16.632Z,33.50
2019-05-21T18:35:50.957Z,33.60
2019-05-21T18:38:25.496Z,33.80
2019-05-21T18:41:01.320Z,33.70
2019-05-21T18:43:36.066Z,33.70
2019-05-21T18:46:11.440Z,33.60
2019-05-21T18:48:46.856Z,33.60
2019-05-21T18:51:22.391Z,33.80
2019-05-21T18:53:57.841Z,33.80
2019-05-21T18:56:33.705Z,33.80
2019-05-21T18:59:08.148Z,34.00
2019-05-21T19:01:42.822Z,34.00
2019-05-21T19:04:17.190Z,34.00
2019-05-21T19:06:52.804Z,34.10
2019-05-21T19:09:27.151Z,34.30
2019-05-21T19:12:02.922Z,34.40
2019-05-21T19:14:37.322Z,34.20
2019-05-21T19:17:11.636Z,34.30
2019-05-21T19:19:45.933Z,34.40
2019-05-21T19:22:20.276Z,34.40
2019-05-21T19:24:54.617Z,34.50
2019-05-21T19:27:28.967Z,34.50
2019-05-21T19:30:03.192Z,34.60
2019-05-21T19:32:39.143Z,35.20
2019-05-21T19:35:14.587Z,34.90
2019-05-21T19:37:50.090Z,34.90
2019-05-21T19:40:25.608Z,34.80
2019-05-21T19:42:59.863Z,34.80
2019-05-21T19:45:34.227Z,34.80
2019-05-21T19:48:08.707Z,34.90
2019-05-21T19:50:43.019Z,34.90
2019-05-21T19:53:17.400Z,35.00
2019-05-21T19:55:53.017Z,34.90
2019-05-21T19:58:27.499Z,35.10
2019-05-21T20:01:01.853Z,35.20
2019-05-21T20:03:36.327Z,35.20
2019-05-21T20:06:11.921Z,35.20
2019-05-21T20:08:47.747Z,35.30
2019-05-21T20:11:23.212Z,35.40
2019-05-21T20:13:57.695Z,35.20
2019-05-21T20:16:33.496Z,35.30
2019-05-21T20:19:09.359Z,35.40
2019-05-21T20:21:45.509Z,35.40
2019-05-21T20:24:21.100Z,35.40
2019-05-21T20:26:56.297Z,35.50
2019-05-21T20:29:33.191Z,35.50
2019-05-21T20:32:08.598Z,35.50
2019-05-21T20:34:44.779Z,35.50
2019-05-21T20:37:20.930Z,35.50
2019-05-21T20:39:56.610Z,35.40
2019-05-21T20:42:33.753Z,35.60
2019-05-21T20:45:10.504Z,35.60
2019-05-21T20:47:46.120Z,35.50
2019-05-21T20:50:21.377Z,35.50
2019-05-21T20:52:57.198Z,35.60
2019-05-21T20:55:32.494Z,35.40
2019-05-21T20:58:09.146Z,35.40
2019-05-21T21:00:45.263Z,35.30
2019-05-21T21:03:19.986Z,35.40
2019-05-21T21:05:55.115Z,35.40
2019-05-21T21:08:30.143Z,35.40
2019-05-21T21:11:06.785Z,35.50
2019-05-21T21:13:42.613Z,35.60
2019-05-21T21:16:16.995Z,35.70
2019-05-21T21:18:51.692Z,35.70
2019-05-21T21:21:27.880Z,35.70
2019-05-21T21:24:02.404Z,35.70
2019-05-21T21:26:38.185Z,35.60
2019-05-21T21:29:12.511Z,35.30
2019-05-21T21:31:48.191Z,35.40
2019-05-21T21:34:22.474Z,35.50
2019-05-21T21:36:57.745Z,35.50
2019-05-21T21:39:32.232Z,35.60
2019-05-21T21:42:07.739Z,35.60
2019-05-21T21:44:42.228Z,35.60
2019-05-21T21:47:20.354Z,35.50
2019-05-21T21:49:54.904Z,35.50
2019-05-21T21:52:30.477Z,35.70
2019-05-21T21:55:08.514Z,35.70
2019-05-21T21:57:42.900Z,35.80
2019-05-21T22:00:42.865Z,35.80
2019-05-21T22:03:20.746Z,35.80
2019-05-21T22:05:56.975Z,35.80
2019-05-21T22:08:34.207Z,35.80
2019-05-21T22:11:08.660Z,35.90
2019-05-21T22:13:44.769Z,35.80
2019-05-21T22:16:20.884Z,35.70
2019-05-21T22:18:55.652Z,35.70
2019-05-21T22:21:31.576Z,35.80
2019-05-21T22:24:09.049Z,35.90
2019-05-21T22:26:44.850Z,35.90
2019-05-21T22:29:19.368Z,35.90
2019-05-21T22:31:55.120Z,35.70
2019-05-21T22:34:30.109Z,35.60
2019-05-21T22:37:04.551Z,35.70
2019-05-21T22:39:40.022Z,35.90
2019-05-21T22:42:26.958Z,36.00
2019-05-21T22:45:08.051Z,36.70
2019-05-21T22:47:37.374Z,36.20
2019-05-21T22:50:11.767Z,36.30
2019-05-21T22:52:48.391Z,36.10
2019-05-21T22:55:22.736Z,36.40
2019-05-21T22:57:58.482Z,36.50
2019-05-21T23:00:34.053Z,36.50
2019-05-21T23:03:08.658Z,36.60
2019-05-21T23:05:44.069Z,36.20
2019-05-21T23:08:20.475Z,36.80
2019-05-21T23:10:54.783Z,36.70
2019-05-21T23:13:29.325Z,36.80
2019-05-21T23:16:03.634Z,36.60
2019-05-21T23:18:47.983Z,36.70
2019-05-21T23:21:29.562Z,36.80
2019-05-21T23:24:05.151Z,36.90
2019-05-21T23:26:41.360Z,37.10
2019-05-21T23:29:17.546Z,37.30
2019-05-21T23:31:54.691Z,37.60
2019-05-21T23:34:29.230Z,37.70
2019-05-21T23:37:04.004Z,37.60
2019-05-21T23:39:39.469Z,37.70
2019-05-21T23:42:27.195Z,37.70
2019-05-21T23:44:49.995Z,37.80
2019-05-21T23:47:25.067Z,38.00
2019-05-21T23:50:00.719Z,38.40
2019-05-21T23:52:37.196Z,38.40
2019-05-21T23:55:12.843Z,38.40
2019-05-21T23:57:47.649Z,39.20
